Time;durP1;ratioP1;P1;durP2;ratioP2;P2;SDS_P1;SDS_P2;PMS_P1;PMS_P2;Temp;Humidity;BMP_temperature;BMP_pressure;BME280_temperature;BME280_humidity;BME280_pressure;Samples;Min_cycle;Max_cycle;Signal;HPM_P1;HPM_P2
2023/10/08 00:00:39;;;;;;;0.73;0.30;;;14.70;99.90;;;;;;5067637;28;20098;-73
2023/10/08 00:02:45;;;;;;;0.65;0.17;;;14.70;99.90;;;;;;5065729;28;20522;-73
2023/10/08 00:05:11;;;;;;;0.50;0.20;;;14.70;99.90;;;;;;5047772;28;20047;-73
2023/10/08 00:07:36;;;;;;;0.60;0.20;;;14.70;99.90;;;;;;5063861;28;20090;-73
2023/10/08 00:10:03;;;;;;;0.35;0.13;;;14.70;99.90;;;;;;5067631;28;20506;-73
2023/10/08 00:12:29;;;;;;;0.60;0.20;;;14.60;99.90;;;;;;5066841;28;20086;-73
2023/10/08 00:14:54;;;;;;;0.80;0.40;;;14.60;99.90;;;;;;5062292;28;20036;-73
2023/10/08 00:17:20;;;;;;;1.38;0.40;;;14.60;99.90;;;;;;5050134;28;20029;-73
2023/10/08 00:19:52;;;;;;;1.02;0.35;;;14.60;99.90;;;;;;5064454;28;20040;-73
2023/10/08 00:22:18;;;;;;;0.68;0.40;;;14.60;99.90;;;;;;5066069;28;20048;-73
2023/10/08 00:24:46;;;;;;;1.33;0.50;;;14.60;99.90;;;;;;5064363;28;20134;-73
2023/10/08 00:27:14;;;;;;;1.17;0.50;;;14.60;99.90;;;;;;5049205;28;20427;-73
2023/10/08 00:29:42;;;;;;;1.42;0.43;;;14.60;99.90;;;;;;5064902;28;20445;-73
2023/10/08 00:32:15;;;;;;;1.60;0.63;;;14.60;99.90;;;;;;5048191;28;20029;-73
2023/10/08 00:34:42;;;;;;;1.40;0.50;;;14.50;99.90;;;;;;5062640;28;20048;-73
2023/10/08 00:37:09;;;;;;;1.75;0.52;;;14.50;99.90;;;;;;5052987;28;20029;-73
2023/10/08 00:39:37;;;;;;;1.67;0.60;;;14.50;99.90;;;;;;5079546;28;20068;-73
2023/10/08 00:42:06;;;;;;;1.83;0.50;;;14.50;99.90;;;;;;5092404;28;20036;-73
2023/10/08 00:44:35;;;;;;;1.48;0.60;;;14.50;99.90;;;;;;5063842;28;20527;-73
2023/10/08 00:47:01;;;;;;;1.50;0.50;;;14.40;99.90;;;;;;5064917;28;20044;-73
2023/10/08 00:49:48;;;;;;;1.80;0.60;;;14.40;99.90;;;;;;5046961;28;20045;-73
2023/10/08 00:57:28;;;;;;;3.15;0.70;;;14.30;99.90;;;;;;5100870;28;20040;-73
2023/10/08 00:59:55;;;;;;;1.23;0.50;;;14.30;99.90;;;;;;5070295;28;20052;-73
2023/10/08 01:02:27;;;;;;;1.33;0.52;;;14.30;99.90;;;;;;5071084;28;20032;-73
2023/10/08 01:04:54;;;;;;;1.05;0.43;;;14.30;99.90;;;;;;5064838;28;20678;-73
2023/10/08 01:07:21;;;;;;;1.60;0.45;;;14.30;99.90;;;;;;5070618;28;20551;-73
2023/10/08 01:09:50;;;;;;;1.02;0.40;;;14.30;99.90;;;;;;5066842;28;20144;-73
2023/10/08 01:12:26;;;;;;;0.93;0.40;;;14.30;99.90;;;;;;5066261;28;20119;-73
2023/10/08 01:15:04;;;;;;;1.20;0.35;;;14.20;99.90;;;;;;5065428;28;20055;-73
2023/10/08 01:17:32;;;;;;;0.73;0.30;;;14.20;99.90;;;;;;5067284;28;20036;-73
2023/10/08 01:20:19;;;;;;;1.02;0.45;;;14.20;99.90;;;;;;5062491;28;20033;-73
2023/10/08 01:22:45;;;;;;;1.67;0.30;;;14.20;99.90;;;;;;5066922;28;20055;-73
2023/10/08 01:25:20;;;;;;;2.03;0.40;;;14.30;99.90;;;;;;5099710;28;20037;-73
2023/10/08 01:27:46;;;;;;;1.17;0.40;;;14.30;99.90;;;;;;5068196;28;20398;-73
2023/10/08 01:30:17;;;;;;;1.35;0.30;;;14.30;99.90;;;;;;5068967;28;20049;-73
2023/10/08 01:32:44;;;;;;;0.80;0.28;;;14.40;99.90;;;;;;5067265;28;20063;-73
2023/10/08 01:35:22;;;;;;;1.63;0.43;;;14.40;99.90;;;;;;5068813;28;20032;-73
2023/10/08 01:37:50;;;;;;;1.08;0.50;;;14.40;99.90;;;;;;5051800;28;20028;-73
2023/10/08 01:40:16;;;;;;;2.17;0.60;;;14.30;99.90;;;;;;5051989;28;20067;-73
2023/10/08 01:42:42;;;;;;;1.85;0.73;;;14.40;99.90;;;;;;5068844;28;20075;-73
2023/10/08 01:45:10;;;;;;;1.95;0.50;;;14.40;99.90;;;;;;5068973;28;20060;-73
2023/10/08 01:47:36;;;;;;;1.50;0.63;;;14.40;99.90;;;;;;5067178;28;20067;-73
2023/10/08 01:50:06;;;;;;;1.30;0.50;;;14.50;99.90;;;;;;5052756;28;20072;-73
2023/10/08 01:52:32;;;;;;;1.52;0.45;;;14.40;99.90;;;;;;5053153;28;20083;-73
2023/10/08 01:54:57;;;;;;;1.80;0.57;;;14.40;99.90;;;;;;5083565;28;20036;-73
2023/10/08 01:57:23;;;;;;;1.35;0.52;;;14.40;99.90;;;;;;5064611;28;20553;-73
2023/10/08 01:59:49;;;;;;;2.03;0.75;;;14.40;99.90;;;;;;5064777;28;20036;-73
2023/10/08 02:02:15;;;;;;;2.28;0.85;;;14.50;99.90;;;;;;5069422;28;20068;-73
2023/10/08 02:04:41;;;;;;;2.35;0.80;;;14.40;99.90;;;;;;5069912;28;20070;-73
2023/10/08 02:07:08;;;;;;;1.95;0.70;;;14.40;99.90;;;;;;5069831;28;20055;-73
2023/10/08 02:09:37;;;;;;;2.70;0.90;;;14.40;99.90;;;;;;5064863;28;20059;-73
2023/10/08 02:12:03;;;;;;;2.58;0.80;;;14.40;99.90;;;;;;5066836;28;20128;-73
2023/10/08 02:14:31;;;;;;;2.13;0.70;;;14.50;99.90;;;;;;5057986;28;20040;-73
2023/10/08 02:17:01;;;;;;;2.28;1.10;;;14.40;99.90;;;;;;5065591;28;20047;-73
2023/10/08 02:19:28;;;;;;;2.80;0.82;;;14.50;99.90;;;;;;5063178;28;20044;-73
2023/10/08 02:21:55;;;;;;;2.33;0.82;;;14.40;99.90;;;;;;5067980;28;20041;-73
2023/10/08 02:24:24;;;;;;;2.65;0.90;;;14.40;99.90;;;;;;5067605;28;20079;-73
2023/10/08 02:26:54;;;;;;;1.50;0.70;;;14.40;99.90;;;;;;5065907;28;20057;-73
2023/10/08 02:29:21;;;;;;;2.13;0.80;;;14.40;99.90;;;;;;5067301;28;20526;-73
2023/10/08 02:31:47;;;;;;;1.50;0.80;;;14.40;99.90;;;;;;5052509;28;20514;-73
2023/10/08 02:34:13;;;;;;;1.83;0.77;;;14.40;99.90;;;;;;5065746;28;20140;-73
2023/10/08 02:36:40;;;;;;;2.47;0.70;;;14.40;99.90;;;;;;5066626;28;20032;-73
2023/10/08 02:39:25;;;;;;;1.88;0.70;;;14.40;99.90;;;;;;5073080;28;20129;-73
2023/10/08 02:41:54;;;;;;;1.33;0.60;;;14.40;99.90;;;;;;5099598;28;20076;-73
2023/10/08 02:44:20;;;;;;;2.10;0.70;;;14.40;99.90;;;;;;5067460;28;20041;-73
2023/10/08 02:46:47;;;;;;;1.85;0.65;;;14.40;99.90;;;;;;5049682;28;20047;-73
2023/10/08 02:49:19;;;;;;;2.13;0.80;;;14.40;99.90;;;;;;5068575;28;20768;-73
2023/10/08 02:51:45;;;;;;;2.03;0.80;;;14.50;99.90;;;;;;5065183;28;20040;-73
2023/10/08 02:54:22;;;;;;;1.27;0.60;;;14.50;99.90;;;;;;5067195;28;20090;-73
2023/10/08 02:56:57;;;;;;;2.67;0.95;;;14.50;99.90;;;;;;5080960;28;20036;-73
2023/10/08 02:59:24;;;;;;;1.83;0.77;;;14.50;99.90;;;;;;5070259;28;20033;-73
2023/10/08 03:01:52;;;;;;;2.30;0.80;;;14.40;99.90;;;;;;5066844;28;20040;-73
2023/10/08 03:04:18;;;;;;;2.00;0.82;;;14.40;99.90;;;;;;5068544;28;20533;-73
2023/10/08 03:06:52;;;;;;;1.48;0.73;;;14.40;99.90;;;;;;5060842;28;20375;-73
2023/10/08 03:09:23;;;;;;;1.70;0.68;;;14.50;99.90;;;;;;5066173;28;20036;-73
2023/10/08 03:11:52;;;;;;;2.80;0.85;;;14.50;99.90;;;;;;5050094;28;20032;-73
2023/10/08 03:14:22;;;;;;;2.25;0.70;;;14.50;99.90;;;;;;5098513;28;20044;-73
2023/10/08 03:16:52;;;;;;;2.75;0.88;;;14.40;99.90;;;;;;5048972;28;20040;-73
2023/10/08 03:19:19;;;;;;;1.92;0.60;;;14.50;99.90;;;;;;5064649;28;20089;-73
2023/10/08 03:21:55;;;;;;;1.45;0.63;;;14.50;99.90;;;;;;5051323;28;20094;-73
2023/10/08 03:24:37;;;;;;;2.38;0.70;;;14.40;99.90;;;;;;5067085;28;20040;-73
2023/10/08 03:27:07;;;;;;;4.60;1.00;;;14.40;99.90;;;;;;5063650;28;20041;-73
2023/10/08 03:29:42;;;;;;;1.50;0.55;;;14.40;99.90;;;;;;5066638;28;20041;-73
2023/10/08 03:32:13;;;;;;;1.02;0.50;;;14.30;99.90;;;;;;5069044;28;20036;-73
2023/10/08 03:34:43;;;;;;;1.85;0.68;;;14.40;99.90;;;;;;5071579;28;20040;-73
2023/10/08 03:37:09;;;;;;;1.60;0.65;;;14.40;99.90;;;;;;5060989;28;20478;-73
2023/10/08 03:40:00;;;;;;;2.20;0.60;;;14.40;99.90;;;;;;5065739;28;20044;-73
2023/10/08 03:42:33;;;;;;;1.30;0.50;;;14.40;99.90;;;;;;5068710;28;20047;-73
2023/10/08 03:45:09;;;;;;;1.33;0.45;;;14.30;99.90;;;;;;5071264;28;20044;-72
2023/10/08 03:47:37;;;;;;;1.92;0.93;;;14.30;99.90;;;;;;5047632;28;20052;-73
2023/10/08 03:50:09;;;;;;;1.98;0.60;;;14.30;99.90;;;;;;5049929;28;20037;-73
2023/10/08 03:52:37;;;;;;;1.38;0.57;;;14.30;99.90;;;;;;5060248;28;20401;-73
2023/10/08 03:55:13;;;;;;;1.85;0.80;;;14.30;99.90;;;;;;5064691;28;20040;-73
2023/10/08 03:57:41;;;;;;;1.33;0.35;;;14.30;99.90;;;;;;5061111;28;20085;-73
2023/10/08 04:00:31;;;;;;;2.55;0.40;;;14.30;99.90;;;;;;5049238;28;20067;-73
2023/10/08 04:03:01;;;;;;;2.97;0.50;;;14.30;99.90;;;;;;5060448;28;20098;-73
2023/10/08 04:05:43;;;;;;;3.13;0.65;;;14.30;99.90;;;;;;5072316;28;20044;-73
2023/10/08 04:08:24;;;;;;;2.75;0.40;;;14.30;99.90;;;;;;5062009;28;20055;-73
2023/10/08 04:11:13;;;;;;;1.02;0.47;;;14.30;99.90;;;;;;5049206;28;20036;-73
2023/10/08 04:13:44;;;;;;;1.55;0.55;;;14.30;99.90;;;;;;5068297;28;20040;-73
2023/10/08 04:16:10;;;;;;;0.60;0.30;;;14.30;99.90;;;;;;5064491;28;20039;-73
2023/10/08 04:18:40;;;;;;;1.08;0.35;;;14.30;99.90;;;;;;5048492;28;20401;-73
2023/10/08 04:21:12;;;;;;;2.08;0.47;;;14.30;99.90;;;;;;5064883;28;20085;-73
2023/10/08 04:23:39;;;;;;;0.57;0.30;;;14.40;99.90;;;;;;5059821;28;20043;-73
2023/10/08 04:26:06;;;;;;;2.03;0.40;;;14.30;99.90;;;;;;5063343;28;20067;-73
2023/10/08 04:28:35;;;;;;;0.95;0.40;;;14.30;99.90;;;;;;5049113;28;20097;-73
2023/10/08 04:31:14;;;;;;;2.08;0.40;;;14.30;99.90;;;;;;5065909;28;20120;-73
2023/10/08 04:33:41;;;;;;;1.65;0.50;;;14.30;99.90;;;;;;5064794;28;20047;-73
2023/10/08 04:36:07;;;;;;;0.98;0.25;;;14.30;99.90;;;;;;5063826;28;20046;-73
2023/10/08 04:38:39;;;;;;;0.70;0.30;;;14.20;99.90;;;;;;5064027;28;20032;-73
2023/10/08 04:41:09;;;;;;;0.93;0.40;;;14.20;99.90;;;;;;5063224;28;20048;-73
2023/10/08 04:43:37;;;;;;;1.00;0.32;;;14.20;99.90;;;;;;5064520;28;20507;-73
2023/10/08 04:46:17;;;;;;;2.33;0.50;;;14.20;99.90;;;;;;5064560;28;20395;-73
2023/10/08 04:48:43;;;;;;;2.80;0.50;;;14.20;99.90;;;;;;5064043;28;20040;-73
2023/10/08 04:51:12;;;;;;;0.95;0.28;;;14.20;99.90;;;;;;5048511;28;20375;-73
2023/10/08 04:53:40;;;;;;;1.38;0.50;;;14.30;99.90;;;;;;5081244;28;20032;-73
2023/10/08 04:56:13;;;;;;;2.88;0.57;;;14.30;99.90;;;;;;5044408;28;20044;-73
2023/10/08 04:58:46;;;;;;;1.45;0.57;;;14.20;99.90;;;;;;5064825;28;20048;-73
2023/10/08 05:01:20;;;;;;;1.77;0.65;;;14.30;99.90;;;;;;5064417;28;20600;-73
2023/10/08 05:06:50;;;;;;;1.92;0.85;;;14.20;99.90;;;;;;5037368;28;20571;-73
2023/10/08 05:11:46;;;;;;;4.47;0.52;;;14.20;99.90;;;;;;5065178;28;20051;-73
2023/10/08 05:17:11;;;;;;;1.85;0.63;;;14.10;99.90;;;;;;5064409;28;20082;-73
2023/10/08 05:22:18;;;;;;;5.30;0.73;;;14.10;99.90;;;;;;5061813;28;20041;-73
2023/10/08 05:25:07;;;;;;;1.33;0.68;;;14.10;99.90;;;;;;5097558;28;20428;-73
2023/10/08 05:30:28;;;;;;;2.03;0.90;;;14.10;99.90;;;;;;5055525;28;20083;-73
2023/10/08 05:38:37;;;;;;;1.67;0.47;;;14.10;99.90;;;;;;5064780;28;20285;-73
2023/10/08 05:49:02;;;;;;;1.80;0.70;;;14.10;99.90;;;;;;5067915;28;20037;-73
2023/10/08 05:51:56;;;;;;;1.60;0.52;;;14.10;99.90;;;;;;5067348;28;20036;-73
2023/10/08 05:59:52;;;;;;;1.92;0.60;;;14.10;99.90;;;;;;5069136;28;20105;-73
2023/10/08 06:13:10;;;;;;;2.92;0.75;;;14.10;99.90;;;;;;5072923;28;20409;-73
2023/10/08 06:18:25;;;;;;;1.65;0.85;;;14.10;99.90;;;;;;5066877;28;20084;-73
2023/10/08 06:20:55;;;;;;;1.50;0.60;;;14.10;99.90;;;;;;5065788;28;20048;-73
2023/10/08 06:23:23;;;;;;;0.88;0.45;;;14.10;99.90;;;;;;5063992;28;20040;-73
2023/10/08 06:25:56;;;;;;;0.98;0.60;;;14.10;99.90;;;;;;5050675;28;20503;-73
2023/10/08 06:28:25;;;;;;;1.70;0.70;;;14.10;99.90;;;;;;5069556;28;20044;-73
2023/10/08 06:30:53;;;;;;;1.38;0.60;;;14.10;99.90;;;;;;5068309;28;20087;-73
2023/10/08 06:33:20;;;;;;;2.70;0.73;;;14.10;99.90;;;;;;5083487;28;20486;-73
2023/10/08 06:38:33;;;;;;;1.90;0.65;;;14.10;99.90;;;;;;5068953;28;20063;-76
2023/10/08 06:41:00;;;;;;;1.85;0.70;;;14.20;99.90;;;;;;5059849;28;20075;-73
2023/10/08 06:43:26;;;;;;;4.03;0.80;;;14.10;99.90;;;;;;5061895;28;20067;-73
2023/10/08 06:45:52;;;;;;;1.60;0.57;;;14.10;99.90;;;;;;5047602;28;20510;-73
2023/10/08 06:48:20;;;;;;;3.65;0.60;;;14.10;99.90;;;;;;5044358;28;20136;-73
2023/10/08 06:50:47;;;;;;;1.92;0.70;;;14.10;99.90;;;;;;5063315;28;21997;-76
2023/10/08 06:53:18;;;;;;;3.35;0.50;;;14.10;99.90;;;;;;5058910;28;20044;-73
2023/10/08 06:55:48;;;;;;;1.88;0.70;;;14.20;99.90;;;;;;5063806;28;20410;-73
2023/10/08 06:58:14;;;;;;;1.80;0.70;;;14.20;99.90;;;;;;5046729;28;20033;-73
2023/10/08 07:00:46;;;;;;;2.25;0.70;;;14.20;99.90;;;;;;5049947;28;20187;-73
2023/10/08 07:03:15;;;;;;;1.25;0.68;;;14.20;99.90;;;;;;5041877;28;20316;-73
2023/10/08 07:05:59;;;;;;;1.95;0.75;;;14.20;99.90;;;;;;5090454;28;20261;-73
2023/10/08 07:08:27;;;;;;;2.53;0.68;;;14.20;99.90;;;;;;5047304;28;20036;-73
2023/10/08 07:10:53;;;;;;;2.85;0.70;;;14.30;99.90;;;;;;5094184;28;20079;-73
2023/10/08 07:13:24;;;;;;;1.17;0.60;;;14.30;99.90;;;;;;5045865;28;20070;-73
2023/10/08 07:15:50;;;;;;;2.97;0.63;;;14.30;99.90;;;;;;5095793;28;20119;-74
2023/10/08 07:18:24;;;;;;;2.25;0.60;;;14.30;99.90;;;;;;5045829;28;20040;-74
2023/10/08 07:20:53;;;;;;;2.08;0.70;;;14.30;99.90;;;;;;5044641;28;20036;-75
2023/10/08 07:23:29;;;;;;;4.45;0.80;;;14.30;99.90;;;;;;5095525;28;20406;-74
2023/10/08 07:25:59;;;;;;;1.73;0.80;;;14.30;99.90;;;;;;5047921;28;20155;-73
2023/10/08 07:28:26;;;;;;;1.52;0.70;;;14.30;99.90;;;;;;5064026;28;20123;-73
2023/10/08 07:30:52;;;;;;;3.03;0.75;;;14.30;99.90;;;;;;5063717;28;20132;-73
2023/10/08 07:33:18;;;;;;;1.98;0.60;;;14.30;99.90;;;;;;5062848;28;20225;-73
2023/10/08 07:35:57;;;;;;;3.17;0.70;;;14.30;99.90;;;;;;5056673;28;20036;-74
2023/10/08 07:38:30;;;;;;;2.70;0.65;;;14.30;99.90;;;;;;5044419;28;20033;-75
2023/10/08 07:40:56;;;;;;;1.23;0.50;;;14.30;99.90;;;;;;5058769;28;20037;-72
2023/10/08 07:43:22;;;;;;;1.48;0.60;;;14.30;99.90;;;;;;5067941;28;20052;-73
2023/10/08 07:45:47;;;;;;;1.65;0.68;;;14.40;99.90;;;;;;5079238;28;20037;-73
2023/10/08 07:48:13;;;;;;;0.60;0.40;;;14.40;99.90;;;;;;5058734;28;20042;-73
2023/10/08 07:50:46;;;;;;;0.93;0.50;;;14.40;99.90;;;;;;5046653;28;20064;-73
2023/10/08 07:53:19;;;;;;;1.20;0.50;;;14.40;99.90;;;;;;5061555;28;20380;-73
2023/10/08 07:55:48;;;;;;;1.50;0.60;;;14.40;99.90;;;;;;5061939;28;20059;-73
2023/10/08 07:58:15;;;;;;;1.40;0.50;;;14.40;99.90;;;;;;5055249;28;20633;-73
2023/10/08 08:00:41;;;;;;;1.40;0.60;;;14.40;99.90;;;;;;5061319;28;20047;-73
2023/10/08 08:03:07;;;;;;;1.38;0.43;;;14.40;99.90;;;;;;5062140;28;20504;-73
2023/10/08 08:05:33;;;;;;;1.02;0.35;;;14.40;99.90;;;;;;5046868;28;20052;-74
2023/10/08 08:08:05;;;;;;;2.15;0.40;;;14.40;99.90;;;;;;5057186;28;20044;-73
2023/10/08 08:10:36;;;;;;;1.52;0.50;;;14.50;99.90;;;;;;5093088;28;20398;-73
2023/10/08 08:13:05;;;;;;;1.27;0.38;;;14.50;99.90;;;;;;5039459;28;20040;-73
2023/10/08 08:15:33;;;;;;;2.65;0.60;;;14.50;99.90;;;;;;5094120;28;20066;-73
2023/10/08 08:18:00;;;;;;;0.75;0.30;;;14.50;99.90;;;;;;5063137;28;20058;-72
2023/10/08 08:20:38;;;;;;;4.13;0.50;;;14.50;99.90;;;;;;5090866;28;20048;-73
2023/10/08 08:23:07;;;;;;;2.90;0.45;;;14.50;99.90;;;;;;5062121;28;20045;-73
2023/10/08 08:25:55;;;;;;;2.00;0.30;;;14.50;99.90;;;;;;5061745;28;20025;-73
2023/10/08 08:28:24;;;;;;;2.95;0.55;;;14.40;99.90;;;;;;5051211;28;20089;-73
2023/10/08 08:30:52;;;;;;;1.35;0.40;;;14.40;99.90;;;;;;5045955;28;20446;-73
2023/10/08 08:33:22;;;;;;;4.78;0.52;;;14.40;99.90;;;;;;5061678;28;20142;-73
2023/10/08 08:35:57;;;;;;;2.08;0.60;;;14.50;99.90;;;;;;5062923;28;20048;-72
2023/10/08 08:38:23;;;;;;;2.00;0.40;;;14.40;99.90;;;;;;5061340;28;20082;-72
2023/10/08 08:40:49;;;;;;;1.42;0.43;;;14.40;99.90;;;;;;5094194;28;20501;-72
2023/10/08 08:43:16;;;;;;;4.18;0.60;;;14.40;99.90;;;;;;5059001;28;20072;-73
2023/10/08 08:45:43;;;;;;;3.25;0.43;;;14.50;99.90;;;;;;5060098;28;20430;-72
2023/10/08 08:48:09;;;;;;;1.02;0.28;;;14.50;99.90;;;;;;5056046;28;20090;-73
2023/10/08 08:50:37;;;;;;;2.38;0.45;;;14.60;99.90;;;;;;5061096;28;20574;-72
2023/10/08 08:53:04;;;;;;;1.38;0.50;;;14.60;99.90;;;;;;5092491;28;20074;-73
2023/10/08 08:55:32;;;;;;;0.77;0.50;;;14.60;99.90;;;;;;5059130;28;20174;-73
2023/10/08 08:57:59;;;;;;;3.17;0.65;;;14.60;99.90;;;;;;5043141;28;20071;-73
2023/10/08 09:00:29;;;;;;;2.10;0.40;;;14.60;99.90;;;;;;5061814;28;20106;-73
2023/10/08 09:02:55;;;;;;;2.83;0.40;;;14.70;99.90;;;;;;5033506;28;20075;-73
2023/10/08 09:05:25;;;;;;;5.38;0.60;;;14.70;99.90;;;;;;5097902;28;20072;-73
2023/10/08 09:08:06;;;;;;;2.33;0.43;;;14.70;99.90;;;;;;5077650;28;20379;-73
2023/10/08 09:10:51;;;;;;;5.90;0.40;;;14.70;99.90;;;;;;5060865;28;20070;-74
2023/10/08 09:13:22;;;;;;;4.10;0.60;;;14.80;99.90;;;;;;5045568;28;20039;-74
2023/10/08 09:15:49;;;;;;;4.25;0.55;;;14.80;99.90;;;;;;5061474;28;20123;-77
2023/10/08 09:18:14;;;;;;;0.77;0.32;;;14.80;99.90;;;;;;5040143;28;20036;-73
2023/10/08 09:20:43;;;;;;;1.77;0.40;;;14.80;99.90;;;;;;5066594;28;20127;-73
2023/10/08 09:23:14;;;;;;;1.73;0.40;;;14.90;99.90;;;;;;5063165;28;20036;-73
2023/10/08 09:25:44;;;;;;;1.75;0.40;;;14.90;99.90;;;;;;5058632;28;20423;-73
2023/10/08 09:28:12;;;;;;;3.88;0.50;;;14.90;99.90;;;;;;5056641;28;20842;-73
2023/10/08 09:30:39;;;;;;;4.78;0.60;;;14.90;99.90;;;;;;5061258;28;20071;-73
2023/10/08 09:33:07;;;;;;;3.15;0.43;;;14.90;99.90;;;;;;5047084;28;20494;-73
2023/10/08 09:35:33;;;;;;;2.60;0.50;;;15.00;99.90;;;;;;5064399;28;20135;-73
2023/10/08 09:38:02;;;;;;;4.10;0.45;;;14.90;99.90;;;;;;5057838;28;20716;-73
2023/10/08 09:40:28;;;;;;;3.03;0.68;;;14.90;99.90;;;;;;5060844;28;20123;-73
2023/10/08 09:42:54;;;;;;;1.00;0.30;;;14.90;99.90;;;;;;5068427;28;20174;-73
2023/10/08 09:45:21;;;;;;;2.15;0.52;;;15.00;99.90;;;;;;5098342;28;20044;-73
2023/10/08 09:47:53;;;;;;;4.28;0.40;;;15.00;99.90;;;;;;5067414;28;20036;-73
2023/10/08 09:50:27;;;;;;;1.00;0.47;;;15.00;99.90;;;;;;5052367;28;20052;-73
2023/10/08 09:53:10;;;;;;;3.53;0.35;;;15.10;99.90;;;;;;5068432;28;20032;-73
2023/10/08 09:55:37;;;;;;;3.72;0.43;;;15.10;99.90;;;;;;5067465;28;20568;-74
2023/10/08 09:58:03;;;;;;;1.60;0.50;;;15.10;99.90;;;;;;5056114;28;20401;-74
2023/10/08 10:00:32;;;;;;;1.52;0.60;;;15.20;99.90;;;;;;5051275;28;20068;-74
2023/10/08 10:03:02;;;;;;;4.90;0.50;;;15.20;99.90;;;;;;5045953;28;20130;-73
2023/10/08 10:05:35;;;;;;;2.42;0.38;;;15.20;99.90;;;;;;5061790;28;20047;-73
2023/10/08 10:08:05;;;;;;;1.35;0.40;;;15.10;99.90;;;;;;5054924;28;20037;-73
2023/10/08 10:10:34;;;;;;;1.77;0.28;;;15.20;99.90;;;;;;5062200;28;20367;-73
2023/10/08 10:13:00;;;;;;;1.75;0.85;;;15.20;99.90;;;;;;5064647;28;20067;-73
2023/10/08 10:15:30;;;;;;;2.85;1.05;;;15.20;99.90;;;;;;5066019;28;20127;-74
2023/10/08 10:17:59;;;;;;;1.95;0.50;;;15.20;99.90;;;;;;5059499;28;20155;-73
2023/10/08 10:20:25;;;;;;;1.20;0.28;;;15.20;99.90;;;;;;5047244;28;20049;-73
2023/10/08 10:22:50;;;;;;;3.25;0.60;;;15.10;99.90;;;;;;5100915;28;20111;-74
2023/10/08 10:25:17;;;;;;;1.08;0.22;;;15.10;99.90;;;;;;5063143;28;20119;-73
2023/10/08 10:27:55;;;;;;;1.23;0.25;;;15.10;99.90;;;;;;5068545;28;20049;-73
2023/10/08 10:30:23;;;;;;;2.35;0.63;;;15.10;99.90;;;;;;5042417;28;20052;-73
2023/10/08 10:32:52;;;;;;;2.72;0.40;;;15.10;99.90;;;;;;5049236;28;20094;-73
2023/10/08 10:35:19;;;;;;;2.20;0.60;;;15.10;99.90;;;;;;5063541;28;20474;-73
2023/10/08 10:37:51;;;;;;;1.38;0.40;;;15.10;99.90;;;;;;5048096;28;20040;-73
2023/10/08 10:40:41;;;;;;;4.20;0.40;;;15.10;99.90;;;;;;5058404;28;20512;-73
2023/10/08 10:43:09;;;;;;;1.80;0.28;;;15.10;99.90;;;;;;5061251;28;20044;-73
2023/10/08 10:45:36;;;;;;;1.85;0.50;;;15.10;99.90;;;;;;5061603;28;20498;-73
2023/10/08 10:48:11;;;;;;;5.90;1.08;;;15.20;99.90;;;;;;5064121;28;20105;-72
2023/10/08 10:53:27;;;;;;;3.08;0.47;;;15.20;99.90;;;;;;5061127;28;20052;-73
2023/10/08 10:56:09;;;;;;;3.30;0.57;;;15.20;99.90;;;;;;5055385;28;20028;-73
2023/10/08 10:58:39;;;;;;;3.80;0.93;;;15.20;99.90;;;;;;5050168;28;20028;-73
2023/10/08 11:01:23;;;;;;;1.70;0.45;;;15.10;99.90;;;;;;5046466;28;20037;-73
2023/10/08 11:03:52;;;;;;;2.95;0.50;;;15.20;99.90;;;;;;5046842;28;20036;-73
2023/10/08 11:06:22;;;;;;;4.05;0.50;;;15.20;99.90;;;;;;5042519;28;20036;-73
2023/10/08 11:08:52;;;;;;;5.97;0.70;;;15.10;99.90;;;;;;5061996;28;20032;-73
2023/10/08 11:11:19;;;;;;;3.35;0.43;;;15.10;99.90;;;;;;5082384;28;20028;-72
2023/10/08 11:13:51;;;;;;;2.92;0.55;;;15.10;99.90;;;;;;5065108;28;20040;-73
2023/10/08 11:16:19;;;;;;;1.85;0.30;;;15.10;99.90;;;;;;5061819;28;20055;-72
2023/10/08 11:18:50;;;;;;;1.42;0.40;;;15.10;99.90;;;;;;5062756;28;20133;-73
2023/10/08 11:21:22;;;;;;;3.05;0.88;;;15.10;99.90;;;;;;5037827;28;20372;-73
2023/10/08 11:24:08;;;;;;;2.13;0.45;;;15.10;99.90;;;;;;5056301;28;20098;-76
2023/10/08 11:26:54;;;;;;;2.97;0.57;;;15.20;99.90;;;;;;5059282;28;20042;-73
2023/10/08 11:29:25;;;;;;;1.02;0.60;;;15.20;99.90;;;;;;5056779;28;20505;-72
2023/10/08 11:31:51;;;;;;;0.95;0.30;;;15.30;99.90;;;;;;5082999;28;20477;-73
2023/10/08 11:34:23;;;;;;;0.85;0.40;;;15.40;99.90;;;;;;5078416;28;20044;-72
2023/10/08 11:36:53;;;;;;;2.95;0.63;;;15.40;99.90;;;;;;5066906;28;20112;-73
2023/10/08 11:39:22;;;;;;;2.40;1.00;;;15.40;99.90;;;;;;5063221;28;20243;-73
2023/10/08 11:42:02;;;;;;;4.03;0.68;;;15.50;99.90;;;;;;5066878;28;20082;-73
2023/10/08 11:44:30;;;;;;;3.35;0.32;;;15.50;99.90;;;;;;5068459;28;20040;-73
2023/10/08 11:47:04;;;;;;;1.63;0.40;;;15.60;99.90;;;;;;5067472;28;20394;-73
2023/10/08 11:49:36;;;;;;;2.40;0.47;;;15.60;99.90;;;;;;5083061;28;20079;-73
2023/10/08 11:52:02;;;;;;;3.42;0.50;;;15.70;99.90;;;;;;5050447;28;20071;-73
2023/10/08 11:54:27;;;;;;;2.03;0.52;;;15.70;99.90;;;;;;5067855;28;20068;-73
2023/10/08 11:56:55;;;;;;;3.10;0.40;;;15.70;99.90;;;;;;5067602;28;20072;-73
2023/10/08 11:59:20;;;;;;;6.57;0.68;;;15.70;99.90;;;;;;5078558;28;20572;-73
2023/10/08 12:01:46;;;;;;;2.28;0.57;;;15.70;99.90;;;;;;5068733;28;20037;-73
2023/10/08 12:04:16;;;;;;;1.48;0.43;;;15.70;99.90;;;;;;5067990;28;20071;-73
2023/10/08 12:06:51;;;;;;;3.60;0.50;;;15.80;99.90;;;;;;5066301;28;20044;-73
2023/10/08 12:09:19;;;;;;;2.58;0.50;;;15.80;99.90;;;;;;5081574;28;20526;-73
2023/10/08 12:11:44;;;;;;;4.75;0.40;;;15.80;99.90;;;;;;5070611;28;20490;-73
2023/10/08 12:14:11;;;;;;;2.25;0.38;;;15.90;99.90;;;;;;5051470;28;20044;-73
2023/10/08 12:16:39;;;;;;;2.70;0.90;;;15.90;99.90;;;;;;5050495;28;20116;-73
2023/10/08 12:19:15;;;;;;;5.07;0.57;;;15.90;99.90;;;;;;5082720;28;20127;-73
2023/10/08 12:21:41;;;;;;;2.42;0.65;;;15.90;99.90;;;;;;5066339;28;20040;-73
2023/10/08 12:24:10;;;;;;;2.55;0.40;;;16.00;99.90;;;;;;5067949;28;20036;-72
2023/10/08 12:26:36;;;;;;;2.42;0.20;;;16.00;99.90;;;;;;5066048;28;20507;-73
2023/10/08 12:29:02;;;;;;;2.38;0.60;;;16.00;99.90;;;;;;5073900;28;20036;-73
2023/10/08 12:31:28;;;;;;;2.00;0.40;;;16.00;99.90;;;;;;5078774;28;20076;-73
2023/10/08 12:34:00;;;;;;;2.15;0.47;;;16.00;99.90;;;;;;5055720;28;20505;-73
2023/10/08 12:36:26;;;;;;;1.38;0.40;;;16.00;99.90;;;;;;5051805;28;20498;-73
2023/10/08 12:38:59;;;;;;;1.38;0.50;;;16.00;99.90;;;;;;5067686;28;20424;-73
2023/10/08 12:41:28;;;;;;;1.80;0.30;;;16.00;99.90;;;;;;5067030;28;20123;-73
2023/10/08 12:43:54;;;;;;;3.47;0.55;;;16.00;99.90;;;;;;5067494;28;20032;-72
2023/10/08 12:46:24;;;;;;;1.58;0.47;;;16.00;99.90;;;;;;5070353;28;20040;-72
2023/10/08 12:48:54;;;;;;;3.47;0.73;;;16.00;99.90;;;;;;5050639;28;20501;-72
2023/10/08 12:51:24;;;;;;;1.85;0.30;;;15.90;99.90;;;;;;5067099;28;20133;-73
2023/10/08 12:54:06;;;;;;;2.75;0.60;;;15.90;99.90;;;;;;5059999;28;20121;-73
2023/10/08 12:56:32;;;;;;;5.55;0.98;;;15.90;99.90;;;;;;5068605;28;20093;-72
2023/10/08 12:59:04;;;;;;;2.42;0.40;;;15.80;99.90;;;;;;5078101;28;20044;-72
2023/10/08 13:01:29;;;;;;;3.00;0.55;;;15.80;99.90;;;;;;5051508;28;20085;-72
2023/10/08 13:04:00;;;;;;;3.10;0.80;;;15.80;99.90;;;;;;5066630;28;20032;-76
2023/10/08 13:06:30;;;;;;;5.70;0.40;;;15.70;99.90;;;;;;5055027;28;20075;-74
2023/10/08 13:08:57;;;;;;;3.28;0.40;;;15.70;99.90;;;;;;5063212;28;20218;-72
2023/10/08 13:11:26;;;;;;;1.70;0.40;;;15.70;99.90;;;;;;5079579;28;20037;-73
2023/10/08 13:13:53;;;;;;;1.30;0.30;;;15.70;99.90;;;;;;5054513;28;20040;-73
2023/10/08 13:16:23;;;;;;;2.53;0.40;;;15.70;99.90;;;;;;5049443;28;20044;-73
2023/10/08 13:18:49;;;;;;;1.50;0.35;;;15.70;99.90;;;;;;5070224;28;21338;-73
2023/10/08 13:21:15;;;;;;;1.35;0.30;;;15.70;99.90;;;;;;5070403;28;20064;-73
2023/10/08 13:23:41;;;;;;;1.60;0.40;;;15.70;99.90;;;;;;5066534;28;20493;-73
2023/10/08 13:26:07;;;;;;;5.22;0.32;;;15.70;99.90;;;;;;5034101;28;20094;-73
2023/10/08 13:28:36;;;;;;;1.48;0.50;;;15.70;99.90;;;;;;5064408;28;20508;-73
2023/10/08 13:31:11;;;;;;;1.77;0.30;;;15.70;99.90;;;;;;5045297;28;20497;-73
2023/10/08 13:33:42;;;;;;;4.10;0.57;;;15.60;99.90;;;;;;5069281;28;20048;-73
2023/10/08 13:36:13;;;;;;;2.35;0.65;;;15.60;99.90;;;;;;5049054;28;20040;-73
2023/10/08 13:38:40;;;;;;;2.65;0.45;;;15.60;99.90;;;;;;5068260;28;20525;-73
2023/10/08 13:41:17;;;;;;;3.20;0.50;;;15.60;99.90;;;;;;5059907;28;20036;-73
2023/10/08 13:43:47;;;;;;;1.58;0.38;;;15.60;99.90;;;;;;5096968;28;20058;-73
2023/10/08 13:46:17;;;;;;;2.17;0.40;;;15.60;99.90;;;;;;5094883;28;20200;-73
2023/10/08 13:48:49;;;;;;;2.58;0.38;;;15.60;99.90;;;;;;5057380;28;20509;-73
2023/10/08 13:51:26;;;;;;;2.03;0.70;;;15.60;99.90;;;;;;5061719;28;20071;-73
2023/10/08 13:53:59;;;;;;;2.22;0.45;;;15.60;99.90;;;;;;5063708;28;20127;-73
2023/10/08 13:56:26;;;;;;;2.75;0.35;;;15.50;99.90;;;;;;5059683;28;20036;-73
2023/10/08 13:59:03;;;;;;;1.55;0.30;;;15.60;99.90;;;;;;5048366;28;20036;-73